Time;durP1;ratioP1;P1;durP2;ratioP2;P2;SDS_P1;SDS_P2;PMS_P1;PMS_P2;Temp;Humidity;BMP_temperature;BMP_pressure;BME280_temperature;BME280_humidity;BME280_pressure;Samples;Min_cycle;Max_cycle;Signal;HPM_P1;HPM_P2
2021/07/13 00:00:36;;;;;;;9.38;6.53;;;;;;;19.94;80.49;100806.43;1789397;80;21485;-75
2021/07/13 00:03:04;;;;;;;8.93;6.33;;;;;;;19.93;80.64;100812.75;1789666;80;20884;-75
2021/07/13 00:05:31;;;;;;;10.75;6.20;;;;;;;19.91;80.49;100810.23;1789550;80;20951;-75
2021/07/13 00:07:58;;;;;;;7.47;6.28;;;;;;;19.91;79.85;100824.87;1789730;80;21349;-74
2021/07/13 00:10:28;;;;;;;9.63;6.92;;;;;;;19.90;80.29;100826.34;1789540;80;20903;-75
2021/07/13 00:12:58;;;;;;;9.30;7.47;;;;;;;19.88;81.11;100815.36;1789679;80;21326;-74
2021/07/13 00:15:29;;;;;;;8.63;7.72;;;;;;;19.86;81.57;100813.34;1789442;80;20955;-75
2021/07/13 00:17:57;;;;;;;7.92;6.70;;;;;;;19.84;81.94;100813.14;1782254;79;20845;-74
2021/07/13 00:20:24;;;;;;;7.58;6.83;;;;;;;19.82;82.33;100811.95;1775987;80;21441;-75
2021/07/13 00:22:51;;;;;;;7.37;6.67;;;;;;;19.79;82.55;100802.94;1776346;80;20932;-74
2021/07/13 00:25:18;;;;;;;8.18;6.83;;;;;;;19.75;82.72;100798.06;1775973;80;21532;-75
2021/07/13 00:27:45;;;;;;;7.15;6.45;;;;;;;19.69;82.69;100799.48;1775766;80;20912;-73
2021/07/13 00:30:14;;;;;;;8.90;7.35;;;;;;;19.65;83.10;100793.59;1775643;80;20972;-73
2021/07/13 00:32:41;;;;;;;9.28;7.92;;;;;;;19.65;83.25;100796.73;1775372;80;21576;-73
2021/07/13 00:35:09;;;;;;;9.10;7.28;;;;;;;19.62;83.26;100786.39;1775664;80;20873;-73
2021/07/13 00:37:37;;;;;;;10.35;8.73;;;;;;;19.60;83.29;100795.01;1775252;80;20888;-73
2021/07/13 00:40:06;;;;;;;8.33;7.65;;;;;;;19.56;83.23;100795.78;1775337;80;20963;-74
2021/07/13 00:42:33;;;;;;;8.45;7.47;;;;;;;19.55;83.36;100787.47;1775265;80;21482;-74
2021/07/13 00:45:00;;;;;;;12.50;8.45;;;;;;;19.53;83.59;100795.25;1775691;80;20893;-73
2021/07/13 00:47:28;;;;;;;14.00;7.83;;;;;;;19.49;83.69;100796.02;1775339;80;21442;-74
2021/07/13 00:49:55;;;;;;;9.88;8.33;;;;;;;19.48;83.70;100796.19;1775729;80;21469;-74
2021/07/13 00:52:22;;;;;;;9.50;7.87;;;;;;;19.43;83.66;100791.28;1775217;80;21522;-74
2021/07/13 00:54:49;;;;;;;15.03;7.85;;;;;;;19.41;83.64;100802.09;1775394;80;20873;-74
2021/07/13 00:57:17;;;;;;;9.93;7.92;;;;;;;19.38;83.70;100796.20;1775198;80;20924;-74
2021/07/13 00:59:43;;;;;;;11.33;8.83;;;;;;;19.34;83.83;100802.80;1779352;80;21369;-71
2021/07/13 01:02:11;;;;;;;12.40;8.50;;;;;;;19.29;83.84;100797.08;1775423;80;21082;-71
2021/07/13 01:04:49;;;;;;;10.53;8.20;;;;;;;19.27;83.99;100799.87;1775529;80;20849;-75
2021/07/13 01:07:39;;;;;;;10.53;9.00;;;;;;;19.26;84.16;100792.89;1773989;80;21382;-75
2021/07/13 01:10:50;;;;;;;13.98;10.40;;;;;;;19.24;84.14;100793.52;1775278;80;20928;-75
2021/07/13 01:14:02;;;;;;;13.13;11.38;;;;;;;19.21;84.04;100790.66;1775382;80;20889;-74
2021/07/13 01:16:54;;;;;;;14.40;9.10;;;;;;;19.18;83.93;100785.62;1775412;80;20964;-75
2021/07/13 01:20:06;;;;;;;10.43;9.45;;;;;;;19.15;83.87;100783.75;1755276;80;20968;-75
2021/07/13 01:22:41;;;;;;;16.32;10.13;;;;;;;19.10;83.99;100783.33;1783798;80;20955;-74
2021/07/13 01:25:24;;;;;;;14.53;10.30;;;;;;;19.04;83.94;100781.59;1783910;80;20895;-75
2021/07/13 01:28:00;;;;;;;14.33;11.00;;;;;;;18.99;84.10;100778.55;1783817;80;20936;-75
2021/07/13 01:30:33;;;;;;;15.00;10.60;;;;;;;18.95;84.14;100784.28;1784022;80;21123;-73
2021/07/13 01:33:18;;;;;;;14.45;11.03;;;;;;;18.91;84.22;100786.37;1783863;80;20876;-75
2021/07/13 01:35:55;;;;;;;16.73;12.23;;;;;;;18.86;84.37;100777.17;1784201;80;20923;-74
2021/07/13 01:38:25;;;;;;;15.78;11.60;;;;;;;18.82;84.60;100781.92;1784195;80;20991;-75
2021/07/13 01:41:01;;;;;;;15.65;13.20;;;;;;;18.78;85.01;100779.19;1783941;80;20947;-75
2021/07/13 01:43:29;;;;;;;23.30;15.65;;;;;;;18.75;85.24;100778.95;1784094;80;21134;-74
2021/07/13 01:45:57;;;;;;;23.05;16.97;;;;;;;18.70;85.61;100774.56;1783808;80;21118;-74
2021/07/13 01:48:27;;;;;;;36.55;21.35;;;;;;;18.69;85.88;100780.01;1783804;80;20852;-74
2021/07/13 01:50:55;;;;;;;35.80;21.17;;;;;;;18.68;85.92;100784.98;1783797;80;21334;-75
2021/07/13 01:53:23;;;;;;;37.17;23.92;;;;;;;18.63;85.87;100778.73;1784153;80;20904;-75
2021/07/13 01:55:51;;;;;;;41.58;25.82;;;;;;;18.61;86.00;100780.23;1783795;80;21154;-75
2021/07/13 01:58:18;;;;;;;36.88;23.67;;;;;;;18.59;86.12;100781.35;1755785;80;20884;-74
2021/07/13 02:00:45;;;;;;;36.42;23.42;;;;;;;18.57;86.18;100793.44;1781373;80;20841;-74
2021/07/13 02:03:12;;;;;;;35.58;21.97;;;;;;;18.55;86.22;100793.23;1783831;80;20932;-73
2021/07/13 02:05:40;;;;;;;40.12;25.70;;;;;;;18.51;86.41;100791.83;1783757;80;20884;-75
2021/07/13 02:08:08;;;;;;;36.73;23.95;;;;;;;18.50;86.55;100798.96;1783759;80;21094;-77
2021/07/13 02:10:35;;;;;;;33.48;24.60;;;;;;;18.48;86.75;100797.43;1755629;80;20920;-74
2021/07/13 02:13:06;;;;;;;35.88;24.55;;;;;;;18.47;86.77;100799.22;1783709;80;21497;-75
2021/07/13 02:15:34;;;;;;;33.65;23.05;;;;;;;18.45;86.71;100802.50;1783913;80;20865;-74
2021/07/13 02:18:01;;;;;;;34.48;21.85;;;;;;;18.44;86.69;100801.67;1774585;80;21003;-73
2021/07/13 02:20:29;;;;;;;39.90;22.80;;;;;;;18.43;86.64;100808.44;1752457;80;21035;-74
2021/07/13 02:22:55;;;;;;;32.28;21.25;;;;;;;18.42;86.55;100804.12;1752515;82;20929;-74
2021/07/13 02:25:23;;;;;;;32.95;19.75;;;;;;;18.41;86.46;100806.44;1752482;82;20920;-73
2021/07/13 02:28:16;;;;;;;28.65;18.80;;;;;;;18.38;86.54;100800.89;1752380;82;20932;-72
2021/07/13 02:30:47;;;;;;;33.20;20.57;;;;;;;18.40;86.68;100810.05;1752513;82;20928;-74
2021/07/13 02:33:20;;;;;;;25.15;18.48;;;;;;;18.37;86.77;100809.02;1752459;82;20889;-73
2021/07/13 02:35:50;;;;;;;25.05;18.52;;;;;;;18.36;86.83;100808.64;1752790;82;21402;-75
2021/07/13 02:38:19;;;;;;;38.60;21.17;;;;;;;18.36;86.92;100816.15;1752393;82;20837;-73
2021/07/13 02:40:48;;;;;;;28.80;19.25;;;;;;;18.35;87.07;100810.47;1752522;82;21406;-75
2021/07/13 02:43:15;;;;;;;30.45;20.15;;;;;;;18.35;87.24;100809.14;1752524;82;20924;-74
2021/07/13 02:45:42;;;;;;;28.75;18.60;;;;;;;18.36;87.46;100808.64;1758994;81;22272;-74
2021/07/13 02:48:10;;;;;;;27.70;18.35;;;;;;;18.37;87.70;100811.17;1709237;82;20872;-74
2021/07/13 02:50:37;;;;;;;26.33;19.92;;;;;;;18.38;87.88;100812.84;1752477;80;20892;-74
2021/07/13 02:53:07;;;;;;;30.90;20.27;;;;;;;18.41;88.05;100817.89;1752411;82;20881;-74
2021/07/13 02:55:36;;;;;;;26.95;19.75;;;;;;;18.43;88.19;100814.61;1734248;82;20865;-74
2021/07/13 02:58:03;;;;;;;33.00;19.90;;;;;;;18.47;88.25;100811.67;1752631;81;21553;-74
2021/07/13 03:00:29;;;;;;;23.87;19.52;;;;;;;18.49;88.27;100814.53;1752754;82;20857;-74
2021/07/13 03:02:56;;;;;;;26.93;19.17;;;;;;;18.51;88.31;100808.59;1752682;80;20953;-74
2021/07/13 03:05:24;;;;;;;28.42;18.80;;;;;;;18.56;88.35;100809.50;1752788;82;20932;-73
2021/07/13 03:07:51;;;;;;;31.60;19.20;;;;;;;18.58;88.41;100808.38;1752678;82;20960;-72
2021/07/13 03:10:24;;;;;;;25.25;17.35;;;;;;;18.61;88.48;100802.81;1752560;80;21526;-74
2021/07/13 03:12:52;;;;;;;30.88;19.52;;;;;;;18.66;88.53;100800.23;1752359;81;21003;-75
2021/07/13 03:15:27;;;;;;;29.72;19.65;;;;;;;18.70;88.57;100801.59;1752792;82;20892;-74
2021/07/13 03:17:54;;;;;;;26.62;19.00;;;;;;;18.75;88.62;100802.87;1753745;80;20924;-74
2021/07/13 03:20:21;;;;;;;28.83;18.67;;;;;;;18.80;88.66;100802.48;1783600;80;21362;-74
2021/07/13 03:22:50;;;;;;;29.35;18.15;;;;;;;18.85;88.74;100796.23;1778547;80;21158;-73
2021/07/13 03:25:21;;;;;;;26.68;18.00;;;;;;;18.90;88.79;100795.81;1783378;80;20885;-74
2021/07/13 03:27:50;;;;;;;23.25;16.82;;;;;;;18.95;88.89;100798.41;1783518;80;20924;-75
2021/07/13 03:30:18;;;;;;;27.82;18.67;;;;;;;19.01;88.99;100801.83;1778392;80;20908;-74
2021/07/13 03:32:49;;;;;;;23.10;17.05;;;;;;;19.08;89.07;100806.59;1783481;80;20899;-73
2021/07/13 03:35:16;;;;;;;22.87;16.82;;;;;;;19.14;89.15;100800.67;1783384;80;21554;-73
2021/07/13 03:37:43;;;;;;;22.45;17.05;;;;;;;19.21;89.24;100804.46;1783287;80;21485;-73
2021/07/13 03:40:14;;;;;;;25.10;17.35;;;;;;;19.27;89.36;100807.84;1783509;80;20920;-73
2021/07/13 03:42:44;;;;;;;20.80;16.27;;;;;;;19.37;89.56;100806.02;1783742;80;20963;-73
2021/07/13 03:45:15;;;;;;;23.35;17.20;;;;;;;19.47;89.69;100807.30;1783438;80;21516;-72
2021/07/13 03:47:40;;;;;;;20.35;15.88;;;;;;;19.57;89.76;100806.78;1783385;80;21919;-71
2021/07/13 03:50:08;;;;;;;19.73;15.50;;;;;;;19.66;89.81;100804.58;1752787;80;20880;-72
2021/07/13 03:52:35;;;;;;;23.57;14.40;;;;;;;19.77;89.78;100808.08;1753615;80;21472;-73
2021/07/13 03:55:02;;;;;;;17.52;14.45;;;;;;;19.86;89.76;100808.02;1783363;80;21535;-73
2021/07/13 03:57:31;;;;;;;19.92;15.10;;;;;;;19.97;89.77;100807.48;1783743;80;21342;-72
2021/07/13 03:59:57;;;;;;;18.98;14.63;;;;;;;20.08;89.70;100811.27;1783502;80;21145;-73
2021/07/13 04:02:24;;;;;;;18.32;14.28;;;;;;;20.19;89.46;100811.56;1783639;80;20975;-72
2021/07/13 04:04:51;;;;;;;18.92;13.20;;;;;;;20.31;89.29;100808.18;1783467;80;20948;-73
2021/07/13 04:07:19;;;;;;;18.23;12.85;;;;;;;20.46;89.26;100818.66;1783537;80;20853;-72
2021/07/13 04:09:46;;;;;;;15.30;13.30;;;;;;;20.58;88.72;100817.45;1783577;80;20861;-74
2021/07/13 04:12:16;;;;;;;14.18;12.55;;;;;;;20.74;88.52;100818.09;1783673;80;21525;-72
2021/07/13 04:14:44;;;;;;;15.72;12.98;;;;;;;20.90;87.68;100819.58;1783563;80;20896;-72
2021/07/13 04:17:11;;;;;;;14.70;12.98;;;;;;;21.09;87.18;100814.54;1783861;80;20959;-77
2021/07/13 04:19:38;;;;;;;20.02;13.15;;;;;;;21.32;86.46;100811.35;1778198;80;21362;-74
2021/07/13 04:22:06;;;;;;;13.70;12.28;;;;;;;21.60;85.71;100814.72;1775444;80;20920;-72
2021/07/13 04:24:34;;;;;;;15.88;12.33;;;;;;;22.01;84.85;100812.23;1775281;80;21152;-73
2021/07/13 04:27:00;;;;;;;12.60;10.72;;;;;;;22.47;83.89;100817.20;1775589;80;20998;-74
2021/07/13 04:29:27;;;;;;;15.65;12.60;;;;;;;23.00;82.19;100816.42;1775268;80;20929;-74
2021/07/13 04:31:55;;;;;;;15.15;12.07;;;;;;;23.52;80.26;100814.16;1775373;80;20987;-72
2021/07/13 04:34:22;;;;;;;12.37;10.43;;;;;;;24.06;78.16;100817.98;1775264;80;20995;-73
2021/07/13 04:36:49;;;;;;;12.13;10.88;;;;;;;24.61;75.81;100816.97;1775366;80;21331;-73
2021/07/13 04:39:16;;;;;;;14.43;10.45;;;;;;;25.14;72.16;100819.19;1775164;80;20869;-73
2021/07/13 04:41:43;;;;;;;13.35;11.33;;;;;;;25.61;68.40;100812.70;1775239;80;20964;-74
2021/07/13 04:44:10;;;;;;;14.98;12.20;;;;;;;26.09;67.35;100816.83;1775615;80;21367;-73
2021/07/13 04:46:37;;;;;;;14.18;11.73;;;;;;;26.50;64.65;100817.56;1775353;80;20924;-73
2021/07/13 04:49:04;;;;;;;14.25;10.70;;;;;;;26.91;63.22;100819.63;1775205;80;21037;-72
2021/07/13 04:51:31;;;;;;;14.47;10.95;;;;;;;27.32;61.99;100817.05;1775298;80;21376;-72
2021/07/13 04:53:59;;;;;;;14.05;9.55;;;;;;;27.73;60.45;100808.69;1775279;80;20888;-72
2021/07/13 04:56:26;;;;;;;10.00;9.00;;;;;;;28.11;59.30;100819.33;1775196;80;20960;-73
2021/07/13 04:58:53;;;;;;;9.58;8.20;;;;;;;28.49;57.81;100823.39;1775321;80;20912;-73
2021/07/13 05:01:20;;;;;;;13.18;8.53;;;;;;;28.82;56.87;100828.00;1775241;80;21987;-73
2021/07/13 05:03:47;;;;;;;10.75;9.63;;;;;;;29.13;56.29;100830.09;1775509;80;20942;-74
2021/07/13 05:06:14;;;;;;;9.90;8.60;;;;;;;29.45;55.04;100835.64;1775355;80;20924;-72
2021/07/13 05:08:42;;;;;;;14.28;9.38;;;;;;;29.75;53.15;100823.84;1775257;80;21003;-72
2021/07/13 05:11:10;;;;;;;10.10;9.20;;;;;;;30.02;52.75;100825.09;1775251;80;21315;-73
2021/07/13 05:13:38;;;;;;;9.60;8.65;;;;;;;30.27;52.56;100831.41;1775214;80;21159;-73
2021/07/13 05:16:05;;;;;;;13.40;9.88;;;;;;;30.51;52.83;100833.05;1775241;80;20892;-73
2021/07/13 05:18:34;;;;;;;13.22;10.43;;;;;;;30.71;51.39;100838.31;1775754;80;21042;-73
2021/07/13 05:21:05;;;;;;;15.35;11.10;;;;;;;30.92;50.64;100838.48;1783655;80;21014;-72
2021/07/13 05:23:32;;;;;;;11.57;10.48;;;;;;;31.12;49.48;100840.48;1783818;80;20896;-72
2021/07/13 05:25:59;;;;;;;15.38;12.93;;;;;;;31.36;50.02;100840.14;1783956;80;21137;-73
2021/07/13 05:28:26;;;;;;;20.40;12.93;;;;;;;31.57;48.17;100840.28;1783390;80;20884;-72
2021/07/13 05:30:53;;;;;;;17.20;14.30;;;;;;;31.75;47.43;100838.09;1783479;80;20967;-72
2021/07/13 05:33:19;;;;;;;14.13;12.73;;;;;;;31.95;47.39;100842.41;1783728;80;21135;-73
2021/07/13 05:35:46;;;;;;;19.60;12.25;;;;;;;32.12;47.33;100833.98;1783540;80;20924;-72
2021/07/13 05:38:13;;;;;;;17.07;10.72;;;;;;;32.25;46.99;100841.66;1783763;80;21942;-74
2021/07/13 05:40:45;;;;;;;13.55;10.18;;;;;;;32.36;46.82;100848.47;1783809;80;20861;-71
2021/07/13 05:43:14;;;;;;;17.85;10.40;;;;;;;32.52;46.71;100846.19;1783864;80;20951;-73
2021/07/13 05:45:42;;;;;;;14.13;10.60;;;;;;;32.66;44.88;100844.94;1783422;80;20928;-72
2021/07/13 05:48:11;;;;;;;12.60;10.28;;;;;;;32.66;44.63;100847.66;1783649;80;20916;-72
2021/07/13 05:50:39;;;;;;;14.13;11.12;;;;;;;32.67;44.60;100849.30;1783609;80;21668;-71
2021/07/13 05:53:06;;;;;;;12.33;10.38;;;;;;;32.69;45.07;100847.18;1783508;80;21489;-71
2021/07/13 05:55:33;;;;;;;12.90;11.10;;;;;;;32.80;44.47;100848.27;1783495;80;20904;-70
2021/07/13 05:58:00;;;;;;;12.37;10.53;;;;;;;32.92;44.86;100850.98;1783537;80;20897;-71
2021/07/13 06:00:26;;;;;;;16.30;11.10;;;;;;;33.13;43.83;100850.45;1783581;80;20881;-70
2021/07/13 06:02:53;;;;;;;13.80;10.70;;;;;;;33.30;43.59;100854.63;1783550;80;21945;-72
2021/07/13 06:05:20;;;;;;;10.85;9.83;;;;;;;33.40;43.72;100852.69;1783617;80;20971;-72
2021/07/13 06:07:48;;;;;;;11.65;10.48;;;;;;;33.53;43.27;100855.15;1783517;80;21394;-73
2021/07/13 06:10:16;;;;;;;13.45;10.38;;;;;;;33.58;42.80;100858.00;1783557;80;20943;-73
2021/07/13 06:12:43;;;;;;;11.43;10.30;;;;;;;33.68;42.64;100856.56;1783488;80;21477;-73
2021/07/13 06:15:12;;;;;;;12.78;9.45;;;;;;;33.76;42.53;100857.02;1783422;80;20991;-72
2021/07/13 06:17:42;;;;;;;10.63;9.63;;;;;;;33.84;42.57;100853.92;1783539;80;21366;-75
2021/07/13 06:20:11;;;;;;;11.30;9.78;;;;;;;33.97;42.21;100861.50;1778741;80;21339;-75
2021/07/13 06:22:38;;;;;;;13.25;10.03;;;;;;;34.11;42.18;100857.48;1775154;80;20889;-73
2021/07/13 06:25:06;;;;;;;13.50;10.30;;;;;;;34.22;41.39;100855.78;1775315;80;20916;-75
2021/07/13 06:27:33;;;;;;;11.88;10.40;;;;;;;34.27;40.91;100855.86;1775182;80;21127;-74
2021/07/13 06:30:00;;;;;;;12.13;10.50;;;;;;;34.20;40.52;100848.39;1775207;80;20881;-77
2021/07/13 06:32:27;;;;;;;11.88;10.48;;;;;;;33.99;40.69;100855.28;1775284;80;20901;-80
2021/07/13 06:34:55;;;;;;;16.27;10.13;;;;;;;33.59;41.51;100854.20;1775510;80;20962;-81
2021/07/13 06:37:23;;;;;;;15.70;10.85;;;;;;;33.31;42.13;100852.75;1775200;80;20940;-81
2021/07/13 06:39:50;;;;;;;13.32;10.78;;;;;;;33.04;43.01;100849.12;1775203;80;21206;-76
2021/07/13 06:42:17;;;;;;;12.78;11.43;;;;;;;32.91;43.06;100851.52;1775724;80;20897;-83
2021/07/13 06:44:44;;;;;;;14.20;11.57;;;;;;;32.80;43.29;100850.98;1775168;80;21358;-83
2021/07/13 06:47:11;;;;;;;15.10;11.20;;;;;;;32.77;43.24;100852.28;1775598;80;20932;-82
2021/07/13 06:49:38;;;;;;;11.80;10.70;;;;;;;32.66;43.40;100849.52;1775226;80;21322;-75
2021/07/13 06:52:05;;;;;;;13.20;11.43;;;;;;;32.80;43.94;100850.44;1775468;80;21493;-81
2021/07/13 06:54:32;;;;;;;13.15;11.40;;;;;;;33.08;42.97;100842.69;1775452;80;20892;-77
2021/07/13 06:56:59;;;;;;;12.63;10.95;;;;;;;33.45;43.26;100848.70;1775457;80;21366;-77
2021/07/13 06:59:26;;;;;;;16.52;12.43;;;;;;;33.76;42.44;100854.30;1775169;80;20936;-73
2021/07/13 07:01:54;;;;;;;14.53;12.03;;;;;;;33.84;41.85;100856.65;1775125;80;21477;-80
2021/07/13 07:04:22;;;;;;;15.72;12.85;;;;;;;33.75;41.40;100857.25;1774849;80;21541;-75
2021/07/13 07:06:48;;;;;;;14.35;11.53;;;;;;;33.42;42.25;100860.89;1775322;80;20889;-76
2021/07/13 07:09:15;;;;;;;14.00;12.58;;;;;;;33.16;42.75;100859.48;1775158;80;20913;-75
2021/07/13 07:11:42;;;;;;;15.32;12.43;;;;;;;32.94;43.40;100858.38;1775480;80;21043;-75
2021/07/13 07:14:09;;;;;;;20.62;13.40;;;;;;;32.72;43.90;100855.38;1775154;80;20912;-75
2021/07/13 07:16:37;;;;;;;15.60;12.18;;;;;;;32.49;44.75;100856.14;1775256;80;21966;-77
2021/07/13 07:19:05;;;;;;;16.55;11.75;;;;;;;32.29;44.80;100861.85;1775140;80;20916;-78
2021/07/13 07:21:32;;;;;;;13.28;12.07;;;;;;;32.09;45.27;100862.12;1775546;80;21472;-79
2021/07/13 07:23:59;;;;;;;15.18;11.85;;;;;;;31.91;46.24;100860.23;1775149;80;20908;-78
2021/07/13 07:26:26;;;;;;;13.70;12.50;;;;;;;31.81;46.94;100866.17;1775358;80;21429;-77
2021/07/13 07:28:53;;;;;;;15.85;12.03;;;;;;;31.82;47.40;100869.20;1775254;80;21488;-73
2021/07/13 07:31:21;;;;;;;15.75;12.37;;;;;;;31.84;47.50;100873.88;1775314;80;20845;-71
2021/07/13 07:33:48;;;;;;;12.73;11.60;;;;;;;31.83;46.59;100868.13;1775137;80;20896;-80
2021/07/13 07:36:15;;;;;;;15.68;12.05;;;;;;;31.77;46.53;100871.23;1775065;80;21049;-77
2021/07/13 07:38:42;;;;;;;13.03;11.83;;;;;;;31.64;46.23;100872.75;1775278;80;21370;-76
2021/07/13 07:41:10;;;;;;;13.30;11.95;;;;;;;31.45;47.04;100862.41;1775371;80;21386;-77
2021/07/13 07:43:38;;;;;;;17.10;13.40;;;;;;;31.28;47.53;100872.98;1775299;80;21398;-79
2021/07/13 07:46:07;;;;;;;14.18;12.05;;;;;;;31.05;48.47;100873.58;1775407;80;20864;-77
2021/07/13 07:48:34;;;;;;;14.10;12.70;;;;;;;30.80;48.25;100874.91;1775546;80;20928;-77
2021/07/13 07:51:02;;;;;;;16.15;13.32;;;;;;;30.57;48.86;100879.02;1775289;80;20905;-78
2021/07/13 07:53:29;;;;;;;15.60;12.10;;;;;;;30.36;49.47;100877.47;1775351;80;21152;-78
2021/07/13 07:55:56;;;;;;;14.05;12.73;;;;;;;30.18;49.74;100880.56;1775351;80;20893;-78
2021/07/13 07:58:23;;;;;;;16.00;13.58;;;;;;;30.16;51.13;100878.06;1775731;80;21478;-77
2021/07/13 08:00:50;;;;;;;16.07;13.43;;;;;;;30.10;49.94;100878.42;1775613;80;20908;-77
2021/07/13 08:03:17;;;;;;;13.88;12.50;;;;;;;30.08;50.86;100871.53;1775621;80;21450;-79
2021/07/13 08:05:44;;;;;;;14.68;13.05;;;;;;;30.17;50.85;100875.69;1775362;80;21557;-72
2021/07/13 08:08:11;;;;;;;13.50;12.20;;;;;;;30.21;50.95;100876.88;1775322;80;20916;-70
2021/07/13 08:10:39;;;;;;;14.45;12.45;;;;;;;30.24;50.89;100878.33;1775409;80;20869;-70
2021/07/13 08:13:06;;;;;;;13.75;12.13;;;;;;;30.24;51.12;100875.13;1775686;80;20936;-70
2021/07/13 08:15:34;;;;;;;16.77;12.68;;;;;;;30.30;50.63;100874.80;1775332;80;21350;-72
2021/07/13 08:18:03;;;;;;;15.45;12.53;;;;;;;30.34;50.99;100874.67;1775363;80;20925;-72
2021/07/13 08:20:30;;;;;;;13.85;12.47;;;;;;;30.52;50.92;100873.94;1779178;80;20881;-72
2021/07/13 08:22:58;;;;;;;14.03;11.83;;;;;;;30.73;51.21;100870.89;1783684;80;20864;-72
2021/07/13 08:25:25;;;;;;;14.78;12.43;;;;;;;31.12;50.68;100873.52;1783697;80;20959;-74
2021/07/13 08:27:51;;;;;;;12.73;10.72;;;;;;;31.36;50.46;100874.02;1783679;80;20884;-72
2021/07/13 08:30:18;;;;;;;14.58;12.10;;;;;;;31.78;50.07;100870.70;1783733;80;21506;-72
2021/07/13 08:32:46;;;;;;;13.70;12.33;;;;;;;32.00;49.01;100863.78;1783553;80;20948;-72
2021/07/13 08:35:13;;;;;;;13.60;12.20;;;;;;;32.20;48.15;100863.52;1783462;80;21454;-72
2021/07/13 08:37:40;;;;;;;14.93;10.65;;;;;;;32.35;49.13;100865.83;1783588;80;20935;-72
2021/07/13 08:40:09;;;;;;;13.70;10.45;;;;;;;32.79;48.78;100869.69;1783546;80;21358;-71
2021/07/13 08:42:39;;;;;;;12.80;11.68;;;;;;;33.11;47.56;100867.52;1783544;80;20884;-71
2021/07/13 08:45:10;;;;;;;14.10;11.73;;;;;;;33.35;46.62;100869.71;1783473;80;20932;-71
2021/07/13 08:47:38;;;;;;;13.03;11.05;;;;;;;33.50;45.57;100866.48;1783520;80;20861;-74
2021/07/13 08:50:07;;;;;;;12.50;10.78;;;;;;;33.42;45.34;100863.61;1783780;80;20979;-72
2021/07/13 08:52:34;;;;;;;14.47;11.28;;;;;;;33.45;45.32;100865.84;1783663;80;21457;-71
2021/07/13 08:55:02;;;;;;;12.40;10.78;;;;;;;33.43;44.63;100854.37;1783730;80;21076;-72
2021/07/13 08:57:29;;;;;;;14.63;10.48;;;;;;;33.35;44.20;100858.83;1783550;80;20979;-71
2021/07/13 08:59:56;;;;;;;10.50;9.50;;;;;;;33.45;43.31;100864.48;1783848;80;20975;-71
2021/07/13 09:02:23;;;;;;;14.60;9.73;;;;;;;33.43;42.94;100860.35;1783609;80;21072;-71
2021/07/13 09:04:52;;;;;;;14.43;9.70;;;;;;;33.39;43.00;100862.70;1783524;80;20963;-72
2021/07/13 09:07:19;;;;;;;20.02;9.38;;;;;;;33.36;43.59;100861.83;1783572;80;22129;-73
2021/07/13 09:09:51;;;;;;;12.13;9.60;;;;;;;33.28;43.14;100862.19;1783728;80;20880;-71
2021/07/13 09:12:19;;;;;;;10.18;9.10;;;;;;;33.10;42.73;100862.31;1783531;80;20908;-71
2021/07/13 09:14:55;;;;;;;10.48;9.48;;;;;;;33.10;43.62;100860.95;1779055;80;20888;-71
2021/07/13 09:17:38;;;;;;;11.28;10.28;;;;;;;32.93;43.44;100866.21;1783530;80;21342;-73
2021/07/13 09:20:13;;;;;;;12.98;9.90;;;;;;;32.79;43.15;100865.61;1781802;80;20912;-73
2021/07/13 09:23:03;;;;;;;11.20;9.38;;;;;;;32.86;43.99;100864.14;1775272;80;20968;-72
2021/07/13 09:25:40;;;;;;;10.20;9.13;;;;;;;32.98;43.98;100864.45;1775776;80;20971;-73
2021/07/13 09:28:22;;;;;;;10.00;9.10;;;;;;;33.14;43.08;100864.32;1775277;80;21351;-72
2021/07/13 09:30:54;;;;;;;9.38;8.48;;;;;;;33.37;43.28;100861.30;1779141;80;20845;-74
2021/07/13 09:33:33;;;;;;;16.57;9.35;;;;;;;33.57;42.48;100866.36;1775312;80;21095;-71
2021/07/13 09:36:14;;;;;;;12.13;8.93;;;;;;;33.82;42.27;100867.48;1775632;80;20837;-72
2021/07/13 09:38:53;;;;;;;9.15;8.25;;;;;;;34.01;41.93;100866.22;1775196;80;20983;-71
2021/07/13 09:41:21;;;;;;;9.33;7.87;;;;;;;34.14;42.30;100866.51;1775405;80;21319;-71
2021/07/13 09:44:06;;;;;;;11.05;8.25;;;;;;;34.37;42.02;100869.65;1775073;80;20971;-72
2021/07/13 09:46:41;;;;;;;9.05;7.83;;;;;;;34.52;40.92;100871.83;1769611;80;21563;-72
2021/07/13 09:49:16;;;;;;;9.05;8.15;;;;;;;34.53;40.58;100869.92;1775500;80;20932;-71
2021/07/13 09:52:04;;;;;;;9.68;8.70;;;;;;;34.62;40.20;100866.61;1775228;80;20905;-72
2021/07/13 09:54:40;;;;;;;9.35;8.30;;;;;;;34.66;40.59;100870.49;1775018;80;20939;-71
2021/07/13 09:57:23;;;;;;;11.12;8.83;;;;;;;34.71;40.77;100872.48;1775249;80;20877;-71
2021/07/13 09:59:52;;;;;;;9.45;8.60;;;;;;;34.75;41.25;100871.43;1775441;80;21297;-72
2021/07/13 10:02:23;;;;;;;11.95;7.95;;;;;;;34.88;41.59;100869.73;1753434;80;20857;-72
2021/07/13 10:04:50;;;;;;;9.85;8.33;;;;;;;35.15;41.45;100869.95;1775447;80;20904;-72
2021/07/13 10:07:20;;;;;;;10.28;8.10;;;;;;;35.46;41.15;100878.54;1775230;80;20927;-73
2021/07/13 10:09:52;;;;;;;12.75;8.73;;;;;;;35.74;40.39;100867.22;1775454;80;20885;-72
2021/07/13 10:12:23;;;;;;;9.28;7.97;;;;;;;35.98;39.96;100869.97;1775302;80;21136;-73
2021/07/13 10:14:58;;;;;;;9.88;7.80;;;;;;;36.13;39.93;100865.27;1775436;80;20877;-73
2021/07/13 10:17:31;;;;;;;7.42;6.83;;;;;;;36.40;39.28;100865.80;1775215;80;20900;-74
2021/07/13 10:20:05;;;;;;;9.85;7.28;;;;;;;36.64;39.20;100863.05;1775052;80;20898;-73
2021/07/13 10:22:34;;;;;;;9.83;7.78;;;;;;;36.71;38.83;100866.94;1775390;80;20936;-72
2021/07/13 10:25:02;;;;;;;9.65;7.08;;;;;;;36.80;39.02;100872.72;1775220;80;21161;-72
2021/07/13 10:27:41;;;;;;;8.28;7.58;;;;;;;36.87;38.55;100868.69;1775070;80;20924;-72
2021/07/13 10:30:23;;;;;;;10.28;7.83;;;;;;;37.02;38.07;100867.14;1775227;80;21318;-71
2021/07/13 10:32:52;;;;;;;11.38;7.03;;;;;;;37.23;37.67;100869.52;1774298;80;20975;-80
2021/07/13 10:35:29;;;;;;;14.10;7.42;;;;;;;37.41;36.62;100864.15;1775565;80;20873;-74
2021/07/13 10:37:59;;;;;;;8.10;7.30;;;;;;;37.52;36.68;100869.95;1775288;80;21821;-78
2021/07/13 10:40:39;;;;;;;9.43;6.50;;;;;;;37.64;35.74;100860.17;1775114;80;20834;-75
2021/07/13 10:43:19;;;;;;;8.83;7.53;;;;;;;37.72;36.10;100861.03;1775297;80;21319;-75
2021/07/13 10:45:49;;;;;;;6.72;6.12;;;;;;;37.80;35.66;100863.79;1775204;80;20873;-75
2021/07/13 10:48:20;;;;;;;13.80;6.92;;;;;;;37.89;36.10;100863.58;1775136;80;20884;-74
2021/07/13 10:51:04;;;;;;;8.78;6.37;;;;;;;38.02;35.97;100858.14;1775138;80;21149;-76
2021/07/13 10:53:39;;;;;;;17.10;6.58;;;;;;;38.17;35.60;100860.92;1775548;80;20912;-78
2021/07/13 10:56:13;;;;;;;13.05;7.30;;;;;;;38.31;34.93;100855.73;1775245;80;21476;-77
2021/07/13 10:58:45;;;;;;;8.38;6.50;;;;;;;38.39;34.67;100849.72;1775117;80;20897;-77
2021/07/13 11:01:35;;;;;;;6.85;6.25;;;;;;;38.35;34.48;100854.94;1775455;80;20897;-77
2021/07/13 11:04:07;;;;;;;10.63;5.78;;;;;;;38.29;34.36;100859.31;1775358;80;21312;-76
2021/07/13 11:06:45;;;;;;;7.65;6.20;;;;;;;38.14;33.51;100851.88;1775253;80;20979;-79
2021/07/13 11:09:30;;;;;;;9.23;6.17;;;;;;;38.00;33.80;100848.81;1775485;80;20964;-76
2021/07/13 11:12:15;;;;;;;5.92;5.50;;;;;;;37.93;33.81;100847.70;1779288;80;21592;-77
2021/07/13 11:14:56;;;;;;;10.38;5.67;;;;;;;37.86;34.00;100846.30;1774532;80;21002;-76
2021/07/13 11:17:25;;;;;;;9.63;6.20;;;;;;;37.68;34.09;100844.31;1775175;80;20892;-75
2021/07/13 11:20:03;;;;;;;12.15;6.62;;;;;;;37.56;34.29;100839.63;1753503;80;20999;-75
2021/07/13 11:22:35;;;;;;;7.70;5.62;;;;;;;37.47;34.12;100844.75;1753314;80;21082;-74
2021/07/13 11:25:02;;;;;;;6.92;4.85;;;;;;;37.36;35.42;100843.06;1775595;80;21390;-75
2021/07/13 11:27:29;;;;;;;7.05;5.50;;;;;;;37.36;34.67;100843.06;1775248;80;20893;-77